Time;durP1;ratioP1;P1;durP2;ratioP2;P2;SDS_P1;SDS_P2;PMS_P1;PMS_P2;Temp;Humidity;BMP_temperature;BMP_pressure;BME280_temperature;BME280_humidity;BME280_pressure;Samples;Min_cycle;Max_cycle;Signal;HPM_P1;HPM_P2
2023/01/30 00:05:14;;;;;;;33.47;19.50;;;3.80;99.90;;;;;;2613503;54;20383;-77
2023/01/30 00:11:04;;;;;;;35.37;17.93;;;3.80;99.90;;;;;;2615643;54;20227;-79
2023/01/30 00:14:15;;;;;;;35.20;19.03;;;3.90;99.90;;;;;;2615240;39;20826;-77
2023/01/30 00:16:41;;;;;;;35.20;21.77;;;3.90;99.90;;;;;;2615585;54;20422;-79
2023/01/30 00:22:29;;;;;;;35.77;21.70;;;3.90;99.90;;;;;;2614625;54;20953;-78
2023/01/30 00:28:17;;;;;;;36.67;23.20;;;3.90;99.90;;;;;;2615883;54;20383;-78
2023/01/30 00:34:05;;;;;;;32.50;19.17;;;4.10;99.90;;;;;;2614687;54;20370;-78
2023/01/30 00:39:53;;;;;;;34.70;21.43;;;4.00;99.90;;;;;;2615418;54;20134;-78
2023/01/30 00:51:50;;;;;;;33.37;18.40;;;4.10;99.90;;;;;;2614224;54;20398;-78
2023/01/30 00:57:38;;;;;;;30.13;20.77;;;4.10;99.90;;;;;;2615640;54;20382;-77
2023/01/30 01:03:25;;;;;;;27.80;16.67;;;4.20;99.90;;;;;;2613763;54;20665;-78
2023/01/30 01:09:16;;;;;;;35.80;20.27;;;4.20;99.90;;;;;;2615840;54;20158;-77
2023/01/30 01:18:45;;;;;;;31.30;18.33;;;4.30;99.90;;;;;;2614367;54;20499;-77
2023/01/30 01:24:32;;;;;;;24.60;12.87;;;4.10;99.90;;;;;;2614911;54;20411;-79
2023/01/30 01:30:21;;;;;;;38.83;24.67;;;4.10;99.90;;;;;;2614751;39;20494;-79
2023/01/30 01:33:25;;;;;;;32.57;17.50;;;4.00;99.90;;;;;;2613212;47;20399;-78
2023/01/30 01:35:54;;;;;;;35.40;21.23;;;4.00;99.90;;;;;;2613374;47;20423;-77
2023/01/30 01:41:42;;;;;;;29.13;19.70;;;4.10;99.90;;;;;;2614632;54;20467;-78
2023/01/30 01:47:34;;;;;;;28.90;16.67;;;4.20;99.90;;;;;;2614840;54;20382;-78
2023/01/30 01:53:26;;;;;;;29.33;20.03;;;4.30;99.90;;;;;;2617094;46;20822;-78
2023/01/30 01:59:34;;;;;;;23.90;13.37;;;4.30;99.90;;;;;;2615497;54;20431;-77
2023/01/30 02:05:24;;;;;;;39.10;20.00;;;4.40;99.90;;;;;;2615603;54;20398;-78
2023/01/30 02:14:22;;;;;;;45.20;20.93;;;4.40;99.90;;;;;;2615524;54;20434;-76
2023/01/30 02:16:48;;;;;;;33.10;21.57;;;4.50;99.90;;;;;;2614953;54;20987;-76
2023/01/30 02:22:41;;;;;;;45.67;24.80;;;4.50;99.90;;;;;;2614662;54;20126;-76
2023/01/30 02:28:32;;;;;;;35.77;20.63;;;4.50;99.90;;;;;;2615976;54;20416;-76
2023/01/30 02:54:06;;;;;;;36.13;24.43;;;4.90;99.90;;;;;;2615622;54;20413;-76
2023/01/30 03:00:00;;;;;;;33.00;19.33;;;5.00;99.90;;;;;;2614917;54;20438;-76
2023/01/30 03:05:54;;;;;;;42.80;21.47;;;5.00;99.90;;;;;;2613606;54;20382;-76
2023/01/30 03:21:24;;;;;;;36.53;18.93;;;5.10;99.90;;;;;;2612515;54;20406;-76
2023/01/30 03:27:12;;;;;;;39.73;20.90;;;5.10;99.90;;;;;;2615697;54;20154;-77
2023/01/30 03:32:59;;;;;;;37.60;23.27;;;5.10;99.90;;;;;;2614797;54;20386;-77
2023/01/30 03:38:47;;;;;;;39.30;22.47;;;5.10;99.90;;;;;;2615021;54;20414;-76
2023/01/30 03:44:35;;;;;;;34.50;17.77;;;5.10;99.90;;;;;;2616016;54;20122;-76
2023/01/30 03:50:23;;;;;;;23.47;15.60;;;5.10;99.90;;;;;;2614030;54;20410;-77
2023/01/30 03:56:10;;;;;;;24.70;16.47;;;5.10;99.90;;;;;;2615475;39;20557;-77
2023/01/30 04:01:58;;;;;;;35.00;20.60;;;5.10;99.90;;;;;;2614352;54;20134;-77
2023/01/30 04:07:46;;;;;;;36.43;20.40;;;5.10;99.90;;;;;;2615524;54;20170;-78
2023/01/30 04:13:34;;;;;;;29.70;17.30;;;5.10;99.90;;;;;;2615010;54;20206;-76
2023/01/30 04:16:21;;;;;;;32.67;18.07;;;5.10;99.90;;;;;;2614722;54;20416;-77
2023/01/30 04:18:47;;;;;;;37.40;20.47;;;5.00;99.90;;;;;;2614035;47;20178;-77
2023/01/30 04:24:34;;;;;;;34.40;21.23;;;5.00;99.90;;;;;;2614947;54;20479;-77
2023/01/30 04:30:23;;;;;;;38.40;22.57;;;5.00;99.90;;;;;;2615153;54;20146;-78
2023/01/30 04:36:11;;;;;;;43.63;24.83;;;5.10;99.90;;;;;;2614852;39;20763;-78
2023/01/30 04:41:59;;;;;;;35.37;20.80;;;5.10;99.90;;;;;;2615328;54;20789;-77
2023/01/30 04:47:47;;;;;;;35.83;22.53;;;5.10;99.90;;;;;;2615630;54;20158;-76
2023/01/30 04:53:34;;;;;;;25.47;17.70;;;5.20;99.90;;;;;;2614474;54;20178;-77
2023/01/30 04:59:23;;;;;;;36.37;18.77;;;5.30;99.90;;;;;;2613458;54;20182;-77
2023/01/30 05:05:10;;;;;;;28.77;19.17;;;5.30;99.90;;;;;;2614911;39;20752;-76
2023/01/30 05:10:58;;;;;;;34.03;21.40;;;5.30;99.90;;;;;;2613518;54;20170;-78
2023/01/30 05:27:02;;;;;;;30.70;19.80;;;5.60;99.90;;;;;;2615000;39;20808;-78
2023/01/30 05:32:50;;;;;;;29.73;19.07;;;5.60;99.90;;;;;;2615177;54;20255;-76
2023/01/30 05:38:37;;;;;;;28.47;18.97;;;5.70;99.90;;;;;;2614470;54;20267;-76
2023/01/30 05:44:24;;;;;;;28.77;17.10;;;5.70;99.90;;;;;;2615241;54;20146;-77
2023/01/30 05:50:11;;;;;;;32.00;18.67;;;5.70;99.90;;;;;;2614311;54;20686;-77
2023/01/30 05:56:02;;;;;;;29.77;17.87;;;5.90;99.90;;;;;;2614065;54;20162;-76
2023/01/30 06:01:50;;;;;;;22.20;12.50;;;5.90;99.90;;;;;;2614652;54;20418;-75
2023/01/30 06:07:40;;;;;;;22.87;14.60;;;5.90;99.90;;;;;;2616442;54;20138;-76
2023/01/30 06:13:28;;;;;;;18.30;11.00;;;6.00;99.90;;;;;;2616899;39;20778;-75
2023/01/30 06:16:28;;;;;;;21.37;14.27;;;6.10;99.90;;;;;;2614258;46;20411;-76
2023/01/30 06:18:54;;;;;;;22.07;14.80;;;6.20;99.90;;;;;;2613235;54;20407;-74
2023/01/30 06:24:42;;;;;;;17.50;11.30;;;6.20;99.90;;;;;;2616202;54;20658;-75
2023/01/30 06:27:59;;;;;;;24.73;15.73;;;6.20;99.90;;;;;;2614974;46;20414;-76
2023/01/30 06:30:24;;;;;;;21.37;14.20;;;6.20;99.90;;;;;;2612211;54;20143;-75
2023/01/30 06:36:12;;;;;;;28.00;17.47;;;6.20;99.90;;;;;;2614097;54;20134;-75
2023/01/30 06:41:59;;;;;;;25.00;15.17;;;6.30;99.90;;;;;;2613715;54;20130;-76
2023/01/30 06:47:52;;;;;;;22.37;14.30;;;6.40;99.90;;;;;;2614566;54;20139;-76
2023/01/30 06:53:40;;;;;;;22.83;14.90;;;6.50;99.90;;;;;;2614344;54;20442;-76
2023/01/30 06:59:27;;;;;;;25.00;15.30;;;6.40;99.90;;;;;;2613545;54;20150;-76
2023/01/30 07:05:15;;;;;;;19.50;13.00;;;6.50;99.90;;;;;;2614074;54;20177;-76
2023/01/30 07:11:04;;;;;;;24.53;16.40;;;6.60;99.90;;;;;;2614055;54;20146;-76
2023/01/30 07:20:58;;;;;;;19.50;11.27;;;6.60;99.90;;;;;;2613587;54;20391;-75
2023/01/30 07:26:47;;;;;;;27.50;14.73;;;6.70;99.90;;;;;;2613305;54;20931;-76
2023/01/30 07:32:35;;;;;;;18.87;11.23;;;6.80;99.90;;;;;;2613787;54;20399;-76
2023/01/30 07:35:39;;;;;;;20.80;13.90;;;6.80;99.90;;;;;;2614095;47;20435;-77
2023/01/30 07:38:05;;;;;;;22.40;14.77;;;6.90;99.90;;;;;;2613517;54;20166;-76
2023/01/30 07:43:52;;;;;;;16.80;10.00;;;6.90;99.90;;;;;;2613640;54;20411;-76
2023/01/30 07:49:40;;;;;;;28.37;11.50;;;7.00;99.90;;;;;;2613439;54;20693;-77
2023/01/30 07:55:28;;;;;;;14.93;9.03;;;7.00;99.90;;;;;;2615612;54;20134;-77
2023/01/30 08:01:16;;;;;;;21.23;7.17;;;6.80;99.90;;;;;;2613594;54;20170;-77
2023/01/30 08:07:03;;;;;;;16.37;7.93;;;6.90;99.90;;;;;;2614976;54;20457;-77
2023/01/30 08:12:51;;;;;;;9.53;5.47;;;7.00;99.90;;;;;;2615597;54;20134;-76
2023/01/30 08:22:01;;;;;;;14.63;5.40;;;7.10;99.90;;;;;;2615026;54;20422;-76
2023/01/30 08:27:50;;;;;;;10.97;5.47;;;7.20;99.90;;;;;;2614954;54;20150;-76
2023/01/30 08:33:37;;;;;;;12.27;6.20;;;7.10;99.90;;;;;;2615248;54;20429;-76
2023/01/30 08:39:25;;;;;;;8.13;4.70;;;7.20;99.90;;;;;;2614901;54;20161;-77
2023/01/30 08:45:13;;;;;;;12.63;5.27;;;7.20;99.90;;;;;;2614786;39;20435;-77
2023/01/30 08:51:00;;;;;;;10.13;5.50;;;7.20;99.90;;;;;;2615749;54;20387;-77
2023/01/30 08:56:48;;;;;;;10.47;5.80;;;7.20;99.90;;;;;;2615399;54;20170;-77
2023/01/30 09:02:36;;;;;;;5.63;3.93;;;7.30;99.90;;;;;;2614912;54;20266;-75
2023/01/30 09:08:24;;;;;;;11.27;5.17;;;7.30;99.90;;;;;;2615992;39;20789;-76
2023/01/30 09:14:11;;;;;;;10.17;5.50;;;7.20;99.90;;;;;;2615359;54;20133;-76
2023/01/30 09:17:28;;;;;;;13.13;6.70;;;7.20;99.90;;;;;;2615898;54;20764;-76
2023/01/30 09:19:54;;;;;;;10.83;4.93;;;7.30;99.90;;;;;;2613955;47;20178;-76
2023/01/30 09:25:45;;;;;;;15.30;5.80;;;7.30;99.90;;;;;;2614333;54;20139;-76
2023/01/30 09:31:35;;;;;;;13.43;4.50;;;7.20;99.90;;;;;;2615295;54;21086;-77
2023/01/30 09:37:23;;;;;;;10.30;4.97;;;7.30;99.90;;;;;;2614829;54;20399;-76
2023/01/30 09:43:36;;;;;;;8.10;5.10;;;7.30;99.90;;;;;;2615529;54;20134;-77
2023/01/30 09:55:49;;;;;;;12.67;6.80;;;7.80;99.90;;;;;;2614762;54;21115;-74
2023/01/30 10:01:43;;;;;;;23.77;8.10;;;7.40;99.90;;;;;;2613509;54;20395;-77
2023/01/30 10:18:30;;;;;;;12.20;6.70;;;7.30;99.90;;;;;;2614538;54;20398;-77
2023/01/30 10:24:35;;;;;;;10.57;7.13;;;7.50;99.90;;;;;;2614066;39;20781;-76
2023/01/30 10:30:23;;;;;;;12.40;7.03;;;7.50;99.90;;;;;;2615601;31;20966;-77
2023/01/30 10:36:14;;;;;;;8.37;6.00;;;7.50;99.90;;;;;;2613277;54;20426;-76
2023/01/30 10:42:13;;;;;;;9.20;6.80;;;7.40;99.90;;;;;;2614638;54;20961;-75
2023/01/30 10:54:40;;;;;;;13.20;6.87;;;7.60;99.90;;;;;;2615917;54;20400;-77
2023/01/30 11:00:51;;;;;;;6.00;5.40;;;7.50;99.90;;;;;;2613416;54;20427;-76
2023/01/30 11:06:38;;;;;;;11.70;7.20;;;7.50;99.90;;;;;;2612115;54;20523;-77
2023/01/30 11:12:26;;;;;;;16.03;7.00;;;7.80;99.90;;;;;;2614688;54;20388;-76
2023/01/30 11:21:35;;;;;;;15.17;9.70;;;7.60;99.90;;;;;;2614662;54;20427;-77
2023/01/30 11:27:31;;;;;;;13.30;8.00;;;7.60;99.90;;;;;;2614575;54;20427;-75
2023/01/30 11:33:21;;;;;;;17.33;7.57;;;7.70;99.90;;;;;;2614640;54;20969;-77
2023/01/30 11:39:11;;;;;;;9.33;5.90;;;7.80;99.90;;;;;;2616039;54;20503;-75
2023/01/30 11:45:02;;;;;;;15.20;7.10;;;8.00;99.90;;;;;;2616004;54;20476;-76
2023/01/30 11:50:57;;;;;;;12.27;7.17;;;7.90;99.90;;;;;;2612849;54;20405;-77
2023/01/30 11:56:55;;;;;;;13.83;7.60;;;8.10;99.90;;;;;;2614284;39;20899;-77
2023/01/30 12:02:44;;;;;;;10.43;5.73;;;7.80;99.90;;;;;;2614694;54;20415;-77
2023/01/30 12:11:53;;;;;;;16.23;5.57;;;7.40;99.90;;;;;;2614186;54;20496;-75
2023/01/30 12:27:51;;;;;;;7.00;5.97;;;7.80;99.90;;;;;;2614629;54;20402;-76
2023/01/30 12:33:39;;;;;;;10.57;6.67;;;8.00;99.90;;;;;;2614350;54;20379;-76
2023/01/30 12:59:32;;;;;;;14.37;8.17;;;8.70;99.90;;;;;;2615293;54;20955;-75
2023/01/30 13:05:25;;;;;;;12.10;7.50;;;8.30;99.90;;;;;;2615458;54;20378;-76
2023/01/30 13:11:12;;;;;;;10.90;6.87;;;8.60;99.50;;;;;;2615493;54;20403;-76
2023/01/30 13:17:21;;;;;;;17.37;9.47;;;9.40;96.90;;;;;;2615290;54;20181;-77
2023/01/30 13:26:18;;;;;;;14.00;9.70;;;9.00;87.80;;;;;;2615001;54;20409;-76
2023/01/30 13:29:21;;;;;;;23.97;10.60;;;8.90;85.70;;;;;;2615212;54;20404;-75
2023/01/30 13:31:55;;;;;;;14.80;8.60;;;8.50;87.10;;;;;;2615393;54;20977;-76
2023/01/30 13:37:46;;;;;;;12.93;8.80;;;8.40;89.90;;;;;;2612016;54;20389;-76
2023/01/30 13:43:41;;;;;;;17.90;11.23;;;8.40;91.20;;;;;;2614554;54;20983;-76
2023/01/30 13:53:00;;;;;;;12.90;8.00;;;9.00;71.00;;;;;;2613677;54;20507;-76
2023/01/30 14:09:04;;;;;;;12.53;8.20;;;9.20;45.00;;;;;;2614997;54;20391;-76
2023/01/30 14:15:13;;;;;;;10.87;7.30;;;9.20;45.40;;;;;;2614694;54;20423;-76
2023/01/30 14:21:18;;;;;;;9.20;8.33;;;8.60;46.40;;;;;;2614811;54;20442;-75
2023/01/30 14:33:49;;;;;;;11.80;7.90;;;8.70;53.00;;;;;;2613047;54;20501;-76
2023/01/30 14:39:38;;;;;;;11.20;7.47;;;8.50;54.00;;;;;;2615922;54;20134;-76
2023/01/30 14:45:55;;;;;;;10.00;7.70;;;8.20;59.40;;;;;;2617161;31;20792;-76
2023/01/30 14:51:48;;;;;;;15.70;8.10;;;8.30;64.30;;;;;;2616044;54;20402;-76
2023/01/30 14:57:36;;;;;;;9.03;7.80;;;8.40;57.70;;;;;;2616560;54;20980;-77
2023/01/30 15:03:24;;;;;;;9.57;7.27;;;8.50;54.20;;;;;;2614302;54;20663;-76
2023/01/30 15:09:17;;;;;;;10.17;7.30;;;8.30;60.30;;;;;;2616339;39;20569;-75
2023/01/30 15:38:27;;;;;;;19.73;9.40;;;8.00;66.30;;;;;;2614004;54;20985;-76
2023/01/30 15:44:35;;;;;;;18.27;8.30;;;7.90;67.20;;;;;;2613114;54;20953;-76
2023/01/30 15:50:23;;;;;;;17.37;8.70;;;7.70;71.20;;;;;;2614696;54;20415;-76
2023/01/30 16:02:35;;;;;;;13.27;7.77;;;7.80;69.90;;;;;;2614849;54;20541;-76
2023/01/30 16:08:29;;;;;;;13.03;7.73;;;7.70;74.50;;;;;;2614848;46;20399;-78
2023/01/30 16:14:19;;;;;;;21.17;9.00;;;7.70;75.10;;;;;;2614285;54;20933;-75
2023/01/30 16:20:13;;;;;;;14.90;8.03;;;7.70;73.30;;;;;;2614310;54;20440;-76
2023/01/30 16:26:02;;;;;;;12.50;8.57;;;7.70;74.80;;;;;;2614281;54;20412;-77
2023/01/30 16:31:51;;;;;;;16.63;7.97;;;7.70;74.40;;;;;;2614484;54;20410;-76
2023/01/30 16:37:39;;;;;;;12.10;7.87;;;7.70;75.30;;;;;;2614856;54;20403;-76
2023/01/30 16:43:29;;;;;;;24.13;10.40;;;7.70;76.30;;;;;;2611613;39;20282;-76
2023/01/30 16:55:31;;;;;;;15.70;9.87;;;7.60;83.40;;;;;;2615891;54;20399;-77
2023/01/30 17:01:22;;;;;;;15.63;9.00;;;7.60;83.90;;;;;;2611737;54;21007;-78
2023/01/30 17:14:09;;;;;;;18.30;10.90;;;7.50;92.40;;;;;;2612556;54;21446;-76
2023/01/30 17:19:58;;;;;;;20.87;10.30;;;7.30;96.10;;;;;;2615733;39;20764;-76
2023/01/30 17:25:47;;;;;;;18.57;10.13;;;7.30;97.90;;;;;;2616072;54;20365;-75
2023/01/30 17:35:22;;;;;;;14.13;7.17;;;7.30;99.90;;;;;;2616441;54;20395;-76
2023/01/30 17:47:42;;;;;;;27.67;9.90;;;7.10;99.90;;;;;;2614681;46;20388;-76
2023/01/30 17:53:29;;;;;;;29.60;9.60;;;6.90;99.90;;;;;;2615162;54;20239;-76
2023/01/30 17:59:18;;;;;;;16.87;10.30;;;6.80;99.90;;;;;;2611940;54;20147;-76
2023/01/30 18:05:05;;;;;;;15.80;8.63;;;6.80;99.90;;;;;;2614934;54;20840;-77
2023/01/30 18:10:53;;;;;;;25.37;11.33;;;6.80;99.90;;;;;;2614288;54;20399;-76
2023/01/30 18:16:40;;;;;;;14.27;7.77;;;6.70;99.90;;;;;;2615203;54;20134;-76
2023/01/30 18:22:27;;;;;;;21.23;9.80;;;6.50;99.90;;;;;;2615895;39;20791;-76
2023/01/30 18:28:18;;;;;;;22.87;7.60;;;6.50;99.90;;;;;;2615718;54;20150;-76
2023/01/30 18:30:51;;;;;;;17.60;8.13;;;6.60;99.90;;;;;;2615377;47;20410;-76
2023/01/30 18:33:17;;;;;;;22.43;12.00;;;6.60;99.90;;;;;;2616325;54;20407;-75
2023/01/30 18:39:05;;;;;;;22.80;8.83;;;6.60;99.90;;;;;;2616023;54;20246;-77
2023/01/30 18:44:52;;;;;;;19.00;8.30;;;6.60;99.90;;;;;;2617042;54;20406;-76
2023/01/30 18:50:40;;;;;;;15.33;6.97;;;6.50;99.90;;;;;;2614920;54;20130;-78
2023/01/30 18:56:33;;;;;;;29.03;10.50;;;6.40;99.90;;;;;;2616241;54;20126;-76
2023/01/30 19:02:24;;;;;;;16.63;9.17;;;6.10;99.90;;;;;;2616143;54;20391;-79
2023/01/30 19:08:11;;;;;;;14.33;7.30;;;5.90;99.90;;;;;;2615201;54;20395;-77
2023/01/30 19:13:59;;;;;;;15.40;7.57;;;6.00;99.90;;;;;;2614118;54;20162;-78
2023/01/30 19:19:50;;;;;;;25.60;7.50;;;5.70;99.90;;;;;;2615263;54;20126;-77
2023/01/30 19:25:37;;;;;;;11.17;7.73;;;5.70;99.90;;;;;;2613138;54;20403;-77
2023/01/30 19:28:43;;;;;;;17.43;6.97;;;5.60;99.90;;;;;;2614124;54;20957;-78
2023/01/30 19:35:24;;;;;;;20.40;7.40;;;5.40;99.90;;;;;;2612868;39;20784;-78
2023/01/30 19:41:14;;;;;;;15.87;9.27;;;5.30;99.90;;;;;;2615131;54;20411;-77
2023/01/30 19:47:02;;;;;;;20.83;7.03;;;5.20;99.90;;;;;;2614707;39;20819;-77
2023/01/30 19:52:53;;;;;;;19.50;7.20;;;5.10;99.90;;;;;;2613951;54;20182;-77
2023/01/30 19:58:41;;;;;;;16.93;7.90;;;5.00;99.90;;;;;;2615175;54;20415;-77
2023/01/30 20:04:29;;;;;;;12.50;7.40;;;5.00;99.90;;;;;;2614705;54;20403;-77
2023/01/30 20:10:17;;;;;;;16.53;7.00;;;5.00;99.90;;;;;;2614195;54;20127;-76
2023/01/30 20:22:18;;;;;;;23.20;9.33;;;5.00;99.90;;;;;;2614135;54;20374;-77
2023/01/30 20:28:06;;;;;;;18.47;7.13;;;5.20;99.90;;;;;;2613685;54;20139;-77
2023/01/30 20:30:51;;;;;;;11.57;6.53;;;5.00;99.90;;;;;;2613268;39;20712;-76
2023/01/30 20:33:16;;;;;;;20.83;7.73;;;5.00;99.90;;;;;;2612446;54;20158;-77
2023/01/30 20:39:06;;;;;;;11.50;7.00;;;5.10;99.90;;;;;;2613796;54;20693;-77
2023/01/30 20:44:53;;;;;;;22.80;7.90;;;5.00;99.90;;;;;;2615280;54;20414;-77
2023/01/30 20:50:41;;;;;;;25.03;9.07;;;4.90;99.90;;;;;;2615317;39;20518;-77
2023/01/30 20:56:31;;;;;;;12.80;5.77;;;4.80;99.90;;;;;;2615034;54;20170;-78
2023/01/30 21:02:19;;;;;;;20.97;5.80;;;5.00;99.90;;;;;;2612728;54;20399;-77
2023/01/30 21:08:07;;;;;;;14.13;6.93;;;5.00;99.90;;;;;;2614914;54;20247;-76
2023/01/30 21:13:54;;;;;;;12.57;5.40;;;5.10;99.90;;;;;;2615351;54;20139;-77
2023/01/30 21:19:42;;;;;;;14.03;6.60;;;5.00;99.90;;;;;;2614819;54;20134;-77
2023/01/30 21:25:30;;;;;;;15.10;6.13;;;4.70;99.90;;;;;;2615251;54;20411;-77
2023/01/30 21:47:20;;;;;;;16.93;5.67;;;4.70;99.90;;;;;;2613612;39;21089;-78
2023/01/30 21:53:08;;;;;;;18.07;6.13;;;4.60;99.90;;;;;;2614341;54;20446;-78
2023/01/30 21:58:58;;;;;;;19.53;9.00;;;4.60;99.90;;;;;;2615160;54;20134;-78
2023/01/30 22:04:46;;;;;;;22.30;6.43;;;4.50;99.90;;;;;;2612974;54;20363;-76
2023/01/30 22:10:33;;;;;;;15.27;6.20;;;4.30;99.90;;;;;;2615634;54;20130;-77
2023/01/30 22:16:24;;;;;;;20.67;5.37;;;4.40;99.90;;;;;;2615362;39;20526;-76
2023/01/30 22:22:15;;;;;;;17.43;6.27;;;4.50;99.90;;;;;;2614637;54;20587;-77
2023/01/30 22:28:03;;;;;;;25.77;8.50;;;4.50;99.90;;;;;;2615644;54;20419;-78
2023/01/30 22:30:58;;;;;;;10.17;6.70;;;4.40;99.90;;;;;;2615485;54;20395;-78
2023/01/30 22:33:24;;;;;;;23.50;8.07;;;4.60;99.90;;;;;;2613598;47;20479;-77
2023/01/30 22:39:12;;;;;;;24.57;9.37;;;4.50;99.90;;;;;;2614675;54;20146;-78
2023/01/30 22:44:59;;;;;;;18.93;6.27;;;4.40;99.90;;;;;;2616166;54;20134;-77
2023/01/30 22:57:23;;;;;;;18.43;7.50;;;4.20;99.90;;;;;;2616161;54;20379;-78
2023/01/30 23:03:11;;;;;;;16.13;6.87;;;4.10;99.90;;;;;;2614292;54;20121;-77
2023/01/30 23:09:00;;;;;;;17.30;7.20;;;4.10;99.90;;;;;;2616679;54;20162;-78
2023/01/30 23:14:47;;;;;;;21.77;7.20;;;4.30;99.90;;;;;;2616246;39;20771;-78
2023/01/30 23:20:35;;;;;;;15.97;7.27;;;4.20;99.90;;;;;;2613002;54;20151;-77
2023/01/30 23:26:25;;;;;;;20.27;6.80;;;4.20;99.90;;;;;;2616323;54;20154;-76
2023/01/30 23:35:41;;;;;;;17.43;7.80;;;4.20;99.90;;;;;;2613890;54;20435;-77
2023/01/30 23:41:31;;;;;;;21.10;7.50;;;4.10;99.90;;;;;;2616160;54;20394;-76
2023/01/30 23:47:19;;;;;;;17.20;6.53;;;4.00;99.90;;;;;;2613713;54;20402;-77
2023/01/30 23:53:08;;;;;;;15.40;6.30;;;3.90;99.90;;;;;;2615494;54;20158;-77
2023/01/30 23:58:56;;;;;;;20.90;6.30;;;3.90;99.90;;;;;;2616144;54;20399;-78
